createdAt,value
2024-01-15T00:00:19.906Z,8.85
2024-01-15T00:01:51.919Z,10.38
2024-01-15T00:03:23.854Z,11.63
2024-01-15T00:04:55.831Z,10.45
2024-01-15T00:06:30.022Z,10.38
2024-01-15T00:08:02.089Z,11.52
2024-01-15T00:09:34.246Z,9.90
2024-01-15T00:11:06.173Z,9.68
2024-01-15T00:12:38.032Z,9.88
2024-01-15T00:14:10.360Z,10.13
2024-01-15T00:15:42.380Z,8.95
2024-01-15T00:17:14.277Z,10.40
2024-01-15T00:18:46.372Z,10.68
2024-01-15T00:20:18.295Z,8.68
2024-01-15T00:21:50.197Z,9.77
2024-01-15T00:23:21.994Z,9.93
2024-01-15T00:24:54.006Z,9.80
2024-01-15T00:26:25.860Z,8.80
2024-01-15T00:27:57.659Z,11.90
2024-01-15T00:29:29.564Z,10.93
2024-01-15T00:31:01.457Z,9.40
2024-01-15T00:32:33.481Z,10.55
2024-01-15T00:34:05.451Z,11.10
2024-01-15T00:35:37.377Z,9.20
2024-01-15T00:37:09.191Z,9.27
2024-01-15T00:38:41.253Z,10.77
2024-01-15T00:40:13.130Z,10.70
2024-01-15T00:41:44.978Z,11.50
2024-01-15T00:43:19.486Z,10.15
2024-01-15T00:44:51.334Z,10.93
2024-01-15T00:46:23.225Z,8.52
2024-01-15T00:47:57.940Z,11.20
2024-01-15T00:49:30.123Z,11.95
2024-01-15T00:51:02.056Z,11.65
2024-01-15T00:52:33.912Z,9.50
2024-01-15T00:54:06.144Z,9.95
2024-01-15T00:55:38.935Z,10.23
2024-01-15T00:57:10.825Z,13.32
2024-01-15T00:58:42.699Z,11.80
2024-01-15T01:00:15.102Z,11.80
2024-01-15T01:01:47.391Z,10.57
2024-01-15T01:03:19.338Z,11.50
2024-01-15T01:04:51.286Z,10.75
2024-01-15T01:06:23.371Z,9.48
2024-01-15T01:07:55.223Z,8.27
2024-01-15T01:09:27.102Z,10.35
2024-01-15T01:10:58.959Z,10.50
2024-01-15T01:12:31.375Z,10.80
2024-01-15T01:14:03.284Z,9.60
2024-01-15T01:15:35.168Z,11.40
2024-01-15T01:17:07.001Z,10.18
2024-01-15T01:18:39.073Z,12.07
2024-01-15T01:20:13.143Z,9.90
2024-01-15T01:21:46.645Z,10.23
2024-01-15T01:23:18.625Z,10.93
2024-01-15T01:24:51.039Z,10.38
2024-01-15T01:26:22.862Z,10.48
2024-01-15T01:27:54.699Z,11.40
2024-01-15T01:29:27.697Z,13.57
2024-01-15T01:30:59.595Z,10.07
2024-01-15T01:32:31.518Z,12.48
2024-01-15T01:34:03.459Z,11.25
2024-01-15T01:35:35.411Z,10.95
2024-01-15T01:37:07.248Z,14.15
2024-01-15T01:38:39.530Z,14.18
2024-01-15T01:40:11.634Z,12.95
2024-01-15T01:41:43.830Z,13.75
2024-01-15T01:43:15.708Z,11.68
2024-01-15T01:44:47.532Z,11.30
2024-01-15T01:46:19.815Z,12.27
2024-01-15T01:47:51.909Z,12.77
2024-01-15T01:49:25.414Z,11.70
2024-01-15T01:51:00.592Z,11.65
2024-01-15T01:52:33.540Z,12.73
2024-01-15T01:54:06.829Z,13.32
2024-01-15T01:55:39.575Z,11.38
2024-01-15T01:57:13.629Z,12.80
2024-01-15T01:58:46.402Z,13.18
2024-01-15T02:00:18.959Z,12.82
2024-01-15T02:01:52.143Z,12.18
2024-01-15T02:03:24.035Z,13.27
2024-01-15T02:04:55.963Z,11.77
2024-01-15T02:06:28.573Z,11.07
2024-01-15T02:08:00.626Z,12.93
2024-01-15T02:09:33.575Z,14.27
2024-01-15T02:11:05.602Z,12.38
2024-01-15T02:12:37.496Z,11.98
2024-01-15T02:14:10.376Z,11.90
2024-01-15T02:15:42.367Z,14.73
2024-01-15T02:17:14.237Z,10.95
2024-01-15T02:18:47.525Z,11.38
2024-01-15T02:20:19.934Z,10.60
2024-01-15T02:21:51.865Z,12.85
2024-01-15T02:23:23.745Z,10.93
2024-01-15T02:24:55.717Z,11.13
2024-01-15T02:26:27.661Z,11.73
2024-01-15T02:27:59.677Z,10.65
2024-01-15T02:29:31.648Z,12.55
2024-01-15T02:31:03.747Z,13.75
2024-01-15T02:32:35.697Z,11.73
2024-01-15T02:34:07.946Z,13.07
2024-01-15T02:35:39.880Z,11.98
2024-01-15T02:37:11.722Z,11.18
2024-01-15T02:38:43.555Z,12.27
2024-01-15T02:40:15.369Z,10.98
2024-01-15T02:41:47.267Z,12.25
2024-01-15T02:43:20.641Z,12.65
2024-01-15T02:44:52.555Z,12.98
2024-01-15T02:46:24.409Z,11.93
2024-01-15T02:47:56.568Z,11.52
2024-01-15T02:49:28.577Z,11.82
2024-01-15T02:51:00.470Z,12.10
2024-01-15T02:52:32.376Z,11.18
2024-01-15T02:54:04.421Z,12.93
2024-01-15T02:55:36.633Z,11.70
2024-01-15T02:57:08.552Z,11.10
2024-01-15T02:58:40.410Z,11.63
2024-01-15T03:00:13.170Z,12.52
2024-01-15T03:01:45.251Z,12.55
2024-01-15T03:03:17.273Z,10.98
2024-01-15T03:04:49.253Z,9.75
2024-01-15T03:06:21.156Z,11.63
2024-01-15T03:07:53.027Z,12.40
2024-01-15T03:09:24.973Z,13.30
2024-01-15T03:10:56.900Z,12.55
2024-01-15T03:12:29.140Z,11.88
2024-01-15T03:14:00.994Z,9.68
2024-01-15T03:15:32.800Z,10.63
2024-01-15T03:17:05.000Z,9.93
2024-01-15T03:18:37.022Z,9.10
2024-01-15T03:20:10.127Z,10.75
2024-01-15T03:21:42.035Z,13.38
2024-01-15T03:23:13.991Z,11.57
2024-01-15T03:24:46.280Z,13.90
2024-01-15T03:26:18.125Z,12.25
2024-01-15T03:27:50.111Z,11.43
2024-01-15T03:29:22.405Z,12.70
2024-01-15T03:30:54.370Z,11.65
2024-01-15T03:32:26.238Z,11.05
2024-01-15T03:33:58.088Z,10.43
2024-01-15T03:35:32.147Z,12.20
2024-01-15T03:37:05.025Z,10.50
2024-01-15T03:38:42.016Z,10.00
2024-01-15T03:40:14.129Z,11.00
2024-01-15T03:41:46.249Z,12.27
2024-01-15T03:43:18.073Z,12.70
2024-01-15T03:44:49.921Z,11.95
2024-01-15T03:46:21.760Z,13.43
2024-01-15T03:47:53.784Z,12.20
2024-01-15T03:49:26.205Z,11.70
2024-01-15T03:50:58.197Z,13.32
2024-01-15T03:52:30.267Z,12.70
2024-01-15T03:54:02.178Z,11.77
2024-01-15T03:55:34.464Z,12.50
2024-01-15T03:57:06.305Z,13.02
2024-01-15T03:58:38.179Z,14.45
2024-01-15T04:00:10.634Z,13.80
2024-01-15T04:01:42.552Z,13.02
2024-01-15T04:03:14.495Z,11.70
2024-01-15T04:04:46.551Z,12.23
2024-01-15T04:06:18.525Z,11.70
2024-01-15T04:07:50.693Z,13.40
2024-01-15T04:09:22.536Z,12.75
2024-01-15T04:10:54.364Z,12.82
2024-01-15T04:12:26.462Z,11.48
2024-01-15T04:13:58.395Z,12.65
2024-01-15T04:15:30.457Z,14.30
2024-01-15T04:17:02.313Z,12.75
2024-01-15T04:18:34.264Z,12.27
2024-01-15T04:20:06.727Z,11.77
2024-01-15T04:21:38.617Z,13.63
2024-01-15T04:23:10.695Z,12.32
2024-01-15T04:24:42.747Z,12.45
2024-01-15T04:26:14.665Z,12.70
2024-01-15T04:27:46.552Z,12.07
2024-01-15T04:29:18.423Z,12.75
2024-01-15T04:30:50.439Z,10.77
2024-01-15T04:32:22.401Z,10.98
2024-01-15T04:33:54.410Z,12.93
2024-01-15T04:35:26.367Z,12.15
2024-01-15T04:36:58.341Z,13.25
2024-01-15T04:38:30.512Z,13.25
2024-01-15T04:40:02.334Z,11.75
2024-01-15T04:41:34.707Z,11.68
2024-01-15T04:43:06.654Z,14.60
2024-01-15T04:44:38.821Z,13.65
2024-01-15T04:46:10.983Z,13.77
2024-01-15T04:47:43.670Z,12.98
2024-01-15T04:49:15.717Z,10.93
2024-01-15T04:50:47.764Z,11.80
2024-01-15T04:52:19.608Z,11.25
2024-01-15T04:53:51.432Z,13.18
2024-01-15T04:55:23.383Z,11.73
2024-01-15T04:56:55.245Z,12.88
2024-01-15T04:58:28.721Z,12.63
2024-01-15T05:00:00.712Z,12.98
2024-01-15T05:01:35.711Z,12.73
2024-01-15T05:03:07.774Z,12.98
2024-01-15T05:04:39.731Z,11.20
2024-01-15T05:06:11.633Z,12.40
2024-01-15T05:07:43.512Z,11.50
2024-01-15T05:09:15.403Z,11.30
2024-01-15T05:10:47.384Z,14.57
2024-01-15T05:12:19.254Z,11.70
2024-01-15T05:13:51.081Z,12.10
2024-01-15T05:15:22.945Z,12.32
2024-01-15T05:16:54.809Z,13.82
2024-01-15T05:18:26.831Z,12.70
2024-01-15T05:19:58.912Z,12.10
2024-01-15T05:21:30.860Z,11.15
2024-01-15T05:23:02.826Z,13.05
2024-01-15T05:24:35.052Z,13.40
2024-01-15T05:26:06.961Z,12.10
2024-01-15T05:27:39.233Z,12.75
2024-01-15T05:29:11.156Z,15.05
2024-01-15T05:30:43.124Z,11.10
2024-01-15T05:32:15.022Z,10.63
2024-01-15T05:33:46.943Z,12.73
2024-01-15T05:35:18.862Z,12.50
2024-01-15T05:36:51.165Z,11.10
2024-01-15T05:38:23.100Z,13.13
2024-01-15T05:39:55.086Z,9.88
2024-01-15T05:41:27.019Z,12.65
2024-01-15T05:42:58.903Z,12.13
2024-01-15T05:44:30.819Z,11.20
2024-01-15T05:46:02.757Z,13.13
2024-01-15T05:47:35.122Z,11.55
2024-01-15T05:49:07.512Z,10.43
2024-01-15T05:50:39.767Z,13.02
2024-01-15T05:52:11.603Z,12.75
2024-01-15T05:53:45.430Z,9.32
2024-01-15T05:55:17.301Z,10.68
2024-01-15T05:56:49.112Z,10.70
2024-01-15T05:58:20.957Z,13.50
2024-01-15T05:59:52.901Z,13.00
2024-01-15T06:01:24.971Z,12.98
2024-01-15T06:02:56.916Z,12.35
2024-01-15T06:04:28.958Z,11.48
2024-01-15T06:06:00.938Z,11.57
2024-01-15T06:07:33.479Z,14.50
2024-01-15T06:09:07.028Z,12.00
2024-01-15T06:10:38.856Z,13.77
2024-01-15T06:12:10.768Z,12.98
2024-01-15T06:13:43.003Z,10.60
2024-01-15T06:15:14.929Z,10.65
2024-01-15T06:16:46.871Z,12.25
2024-01-15T06:18:19.030Z,11.40
2024-01-15T06:19:51.151Z,11.40
2024-01-15T06:21:23.166Z,10.70
2024-01-15T06:22:55.036Z,10.60
2024-01-15T06:24:26.940Z,10.02
2024-01-15T06:25:58.805Z,9.50
2024-01-15T06:27:30.667Z,10.45
2024-01-15T06:29:04.196Z,9.77
2024-01-15T06:30:36.600Z,11.27
2024-01-15T06:32:08.494Z,10.65
2024-01-15T06:33:40.671Z,11.10
2024-01-15T06:35:13.093Z,9.52
2024-01-15T06:36:45.136Z,12.65
2024-01-15T06:38:16.975Z,11.88
2024-01-15T06:39:49.067Z,10.50
2024-01-15T06:41:21.019Z,10.13
2024-01-15T06:42:52.900Z,11.77
2024-01-15T06:44:24.906Z,9.75
2024-01-15T06:45:56.990Z,9.48
2024-01-15T06:47:29.101Z,10.85
2024-01-15T06:49:01.054Z,10.65
2024-01-15T06:50:32.946Z,9.63
2024-01-15T06:52:05.081Z,10.63
2024-01-15T06:53:36.930Z,8.75
2024-01-15T06:55:09.416Z,9.07
2024-01-15T06:56:41.286Z,10.93
2024-01-15T06:58:15.132Z,9.68
2024-01-15T06:59:46.968Z,9.07
2024-01-15T07:01:18.937Z,9.70
2024-01-15T07:02:50.810Z,8.38
2024-01-15T07:04:22.673Z,9.27
2024-01-15T07:05:54.497Z,8.10
2024-01-15T07:07:30.123Z,9.27
2024-01-15T07:09:01.968Z,9.30
2024-01-15T07:10:37.032Z,8.95
2024-01-15T07:12:09.291Z,8.45
2024-01-15T07:13:41.184Z,9.02
2024-01-15T07:15:13.169Z,7.32
2024-01-15T07:16:48.388Z,8.70
2024-01-15T07:18:20.928Z,8.27
2024-01-15T07:19:52.828Z,9.88
2024-01-15T07:21:24.733Z,10.02
2024-01-15T07:22:56.612Z,8.93
2024-01-15T07:24:28.450Z,9.07
2024-01-15T07:26:00.515Z,9.90
2024-01-15T07:27:33.152Z,9.23
2024-01-15T07:29:05.536Z,8.60
2024-01-15T07:30:39.977Z,10.18
2024-01-15T07:32:11.900Z,8.85
2024-01-15T07:33:43.891Z,8.57
2024-01-15T07:35:16.728Z,7.72
2024-01-15T07:36:48.576Z,8.98
2024-01-15T07:38:20.416Z,9.35
2024-01-15T07:39:52.487Z,8.95
2024-01-15T07:41:24.750Z,9.15
2024-01-15T07:42:56.591Z,10.45
2024-01-15T07:44:28.544Z,8.73
2024-01-15T07:46:00.653Z,8.68
2024-01-15T07:47:33.164Z,9.30
2024-01-15T07:49:06.969Z,7.88
2024-01-15T07:50:38.882Z,8.45
2024-01-15T07:52:11.329Z,9.57
2024-01-15T07:53:43.144Z,11.32
2024-01-15T07:55:15.123Z,8.77
2024-01-15T07:57:00.953Z,9.88
2024-01-15T07:58:32.875Z,9.25
2024-01-15T08:00:06.597Z,9.98
2024-01-15T08:01:38.405Z,9.07
2024-01-15T08:03:10.321Z,8.80
2024-01-15T08:04:42.271Z,10.57
2024-01-15T08:06:14.644Z,8.38
2024-01-15T08:07:46.458Z,9.90
2024-01-15T08:09:18.359Z,10.18
2024-01-15T08:10:50.695Z,8.25
2024-01-15T08:12:23.269Z,10.48
2024-01-15T08:13:55.081Z,8.57
2024-01-15T08:15:31.154Z,8.30
2024-01-15T08:17:03.638Z,9.35
2024-01-15T08:18:35.550Z,10.60
2024-01-15T08:20:07.870Z,11.02
2024-01-15T08:21:39.890Z,9.98
2024-01-15T08:23:11.734Z,10.38
2024-01-15T08:24:47.152Z,9.07
2024-01-15T08:26:19.034Z,11.43
2024-01-15T08:27:50.947Z,11.07
2024-01-15T08:29:23.216Z,9.90
2024-01-15T08:30:55.082Z,10.73
2024-01-15T08:32:27.111Z,9.93
2024-01-15T08:33:59.061Z,11.63
2024-01-15T08:35:30.952Z,11.93
2024-01-15T08:37:03.954Z,8.75
2024-01-15T08:38:36.133Z,9.48
2024-01-15T08:40:08.391Z,9.77
2024-01-15T08:41:40.195Z,10.07
2024-01-15T08:43:12.028Z,9.43
2024-01-15T08:44:44.970Z,10.15
2024-01-15T08:46:34.921Z,9.05
2024-01-15T08:48:06.887Z,9.98
2024-01-15T08:49:38.917Z,10.80
2024-01-15T08:51:10.891Z,10.00
2024-01-15T08:52:42.701Z,8.52
2024-01-15T08:54:14.579Z,9.75
2024-01-15T08:55:46.878Z,9.30
2024-01-15T08:57:18.743Z,10.18
2024-01-15T08:58:50.656Z,9.98
2024-01-15T09:00:22.517Z,9.77
2024-01-15T09:01:54.405Z,10.35
2024-01-15T09:03:26.908Z,9.35
2024-01-15T09:04:58.929Z,10.18
2024-01-15T09:06:31.130Z,10.40
2024-01-15T09:08:03.098Z,8.93
2024-01-15T09:09:36.269Z,10.85
2024-01-15T09:11:08.135Z,10.65
2024-01-15T09:12:40.420Z,7.35
2024-01-15T09:14:13.279Z,11.20
2024-01-15T09:15:46.233Z,9.38
2024-01-15T09:17:30.406Z,8.70
2024-01-15T09:19:02.549Z,9.27
2024-01-15T09:20:34.469Z,8.85
2024-01-15T09:22:06.684Z,10.68
2024-01-15T09:23:39.379Z,8.82
2024-01-15T09:25:11.578Z,9.45
2024-01-15T09:26:43.523Z,8.93
2024-01-15T09:28:15.455Z,10.95
2024-01-15T09:29:47.494Z,7.93
2024-01-15T09:31:21.268Z,11.98
2024-01-15T09:32:53.258Z,7.65
2024-01-15T09:34:25.306Z,8.18
2024-01-15T09:35:57.213Z,7.82
2024-01-15T09:37:41.179Z,7.60
2024-01-15T09:39:17.178Z,8.45
2024-01-15T09:40:49.182Z,10.45
2024-01-15T09:42:22.345Z,9.73
2024-01-15T09:43:54.523Z,8.90
2024-01-15T09:45:27.025Z,8.25
2024-01-15T09:46:59.255Z,11.02
2024-01-15T09:48:31.217Z,9.75
2024-01-15T09:50:04.643Z,8.63
2024-01-15T09:51:37.768Z,8.18
2024-01-15T09:53:11.283Z,8.82
2024-01-15T09:54:47.808Z,9.15
2024-01-15T09:56:20.677Z,7.63
2024-01-15T09:57:54.698Z,9.48
2024-01-15T09:59:30.219Z,8.48
2024-01-15T10:01:07.118Z,8.55
2024-01-15T10:02:41.486Z,8.70
2024-01-15T10:04:16.172Z,7.72
2024-01-15T10:05:48.166Z,8.00
2024-01-15T10:07:20.863Z,10.38
2024-01-15T10:08:53.977Z,8.60
2024-01-15T10:10:25.903Z,9.10
2024-01-15T10:11:57.735Z,7.22
2024-01-15T10:13:31.465Z,7.05
2024-01-15T10:15:03.396Z,5.38
2024-01-15T10:16:35.817Z,8.73
2024-01-15T10:18:07.922Z,7.50
2024-01-15T10:19:39.846Z,8.13
2024-01-15T10:21:11.816Z,6.60
2024-01-15T10:22:44.857Z,7.80
2024-01-15T10:24:16.990Z,8.38
2024-01-15T10:25:48.885Z,8.15
2024-01-15T10:27:20.764Z,8.35
2024-01-15T10:28:53.804Z,7.65
2024-01-15T10:30:25.799Z,8.25
2024-01-15T10:31:58.299Z,7.00
2024-01-15T10:33:30.464Z,5.88
2024-01-15T10:35:02.461Z,8.63
2024-01-15T10:36:34.434Z,7.35
2024-01-15T10:38:07.001Z,8.93
2024-01-15T10:39:39.828Z,7.40
2024-01-15T10:41:12.090Z,6.70
2024-01-15T10:42:43.964Z,7.57
2024-01-15T10:44:15.812Z,6.60
2024-01-15T10:45:51.744Z,6.32
2024-01-15T10:47:24.274Z,8.65
2024-01-15T10:48:56.287Z,6.30
2024-01-15T10:50:28.723Z,9.18
2024-01-15T10:52:05.064Z,6.70
2024-01-15T10:53:38.480Z,4.75
2024-01-15T10:55:15.930Z,6.43
2024-01-15T10:56:52.835Z,6.53
2024-01-15T10:58:26.752Z,7.15
2024-01-15T11:00:00.041Z,7.25
2024-01-15T11:01:32.700Z,7.68
2024-01-15T11:03:07.069Z,6.57
2024-01-15T11:04:39.103Z,7.97
2024-01-15T11:06:23.517Z,8.82
2024-01-15T11:08:01.573Z,6.68
2024-01-15T11:09:33.507Z,5.80
2024-01-15T11:11:05.514Z,8.68
2024-01-15T11:12:37.391Z,7.05
2024-01-15T11:14:09.252Z,7.15
2024-01-15T11:15:57.424Z,6.38
2024-01-15T11:18:02.532Z,9.18
2024-01-15T11:19:39.434Z,5.57
2024-01-15T11:21:17.419Z,6.93
2024-01-15T11:22:50.569Z,7.65
2024-01-15T11:24:39.749Z,8.85
2024-01-15T11:26:31.233Z,9.95
2024-01-15T11:28:03.687Z,7.82
2024-01-15T11:29:39.380Z,6.45
2024-01-15T11:31:14.721Z,6.72
2024-01-15T11:32:47.957Z,7.82
2024-01-15T11:34:20.402Z,6.38
2024-01-15T11:35:52.495Z,7.20
2024-01-15T11:37:24.923Z,6.97
2024-01-15T11:38:56.821Z,7.00
2024-01-15T11:40:34.521Z,7.97
2024-01-15T11:42:06.364Z,8.10
2024-01-15T11:43:38.292Z,8.32
2024-01-15T11:45:10.515Z,6.50
2024-01-15T11:46:54.839Z,5.40
2024-01-15T11:48:38.973Z,6.82
2024-01-15T11:50:12.793Z,8.13
2024-01-15T11:51:44.979Z,6.75
2024-01-15T11:53:31.450Z,6.55
2024-01-15T11:55:28.363Z,5.90
2024-01-15T11:57:05.393Z,6.60
2024-01-15T11:58:38.890Z,8.48
2024-01-15T12:00:13.066Z,6.20
2024-01-15T12:01:45.488Z,7.13
2024-01-15T12:03:17.358Z,6.75
2024-01-15T12:04:49.273Z,7.55
2024-01-15T12:06:21.322Z,7.00
2024-01-15T12:07:53.192Z,6.55
2024-01-15T12:09:25.759Z,6.00
2024-01-15T12:10:58.307Z,6.75
2024-01-15T12:13:00.348Z,7.80
2024-01-15T12:14:32.881Z,6.25
2024-01-15T12:16:05.649Z,7.78
2024-01-15T12:17:40.353Z,8.20
2024-01-15T12:19:12.464Z,6.47
2024-01-15T12:20:48.555Z,7.70
2024-01-15T12:22:20.922Z,6.30
2024-01-15T12:23:53.865Z,6.90
2024-01-15T12:25:28.287Z,4.75
2024-01-15T12:27:00.190Z,6.30
2024-01-15T12:28:32.097Z,6.40
2024-01-15T12:30:07.837Z,8.23
2024-01-15T12:31:40.210Z,6.18
2024-01-15T12:33:12.267Z,4.68
2024-01-15T12:34:44.539Z,7.35
2024-01-15T12:36:22.302Z,6.70
2024-01-15T12:37:55.654Z,7.15
2024-01-15T12:39:27.531Z,5.28
2024-01-15T12:41:02.039Z,6.05
2024-01-15T12:42:34.734Z,6.65
2024-01-15T12:44:06.730Z,6.25
2024-01-15T12:45:39.412Z,6.35
2024-01-15T12:47:11.640Z,6.10
2024-01-15T12:48:43.863Z,7.22
2024-01-15T12:50:19.446Z,7.43
2024-01-15T12:51:55.670Z,6.55
2024-01-15T12:53:27.585Z,5.93
2024-01-15T12:54:59.493Z,6.90
2024-01-15T12:56:31.385Z,6.75
2024-01-15T12:58:03.283Z,6.30
2024-01-15T12:59:35.600Z,5.65
2024-01-15T13:01:07.610Z,6.55
2024-01-15T13:02:41.629Z,6.47
2024-01-15T13:04:24.178Z,5.30
2024-01-15T13:05:57.635Z,7.18
2024-01-15T13:07:29.500Z,5.72
2024-01-15T13:09:01.388Z,4.70
2024-01-15T13:10:33.411Z,7.30
2024-01-15T13:12:06.975Z,5.78
2024-01-15T13:13:39.043Z,6.32
2024-01-15T13:15:14.816Z,5.72
2024-01-15T13:16:47.439Z,7.10
2024-01-15T13:18:20.149Z,6.13
2024-01-15T13:19:52.307Z,8.68
2024-01-15T13:21:24.249Z,6.25
2024-01-15T13:22:56.520Z,6.88
2024-01-15T13:24:28.397Z,6.47
2024-01-15T13:26:00.438Z,6.28
2024-01-15T13:27:32.554Z,5.50
2024-01-15T13:29:05.495Z,6.82
2024-01-15T13:30:37.864Z,7.75
2024-01-15T13:32:12.621Z,5.82
2024-01-15T13:33:45.046Z,6.88
2024-01-15T13:35:17.085Z,5.32
2024-01-15T13:36:49.090Z,6.75
2024-01-15T13:38:20.950Z,8.32
2024-01-15T13:39:54.260Z,6.85
2024-01-15T13:41:28.592Z,6.40
2024-01-15T13:43:00.487Z,9.93
2024-01-15T13:44:32.349Z,6.53
2024-01-15T13:46:06.025Z,8.20
2024-01-15T13:47:39.011Z,7.80
2024-01-15T13:49:11.328Z,6.38
2024-01-15T13:50:43.316Z,8.02
2024-01-15T13:52:15.312Z,6.95
2024-01-15T13:53:47.202Z,6.90
2024-01-15T13:55:19.129Z,6.20
2024-01-15T13:56:51.213Z,5.43
2024-01-15T13:58:23.032Z,6.38
2024-01-15T13:59:54.895Z,7.43
2024-01-15T14:01:28.322Z,8.00
2024-01-15T14:03:00.344Z,6.65
2024-01-15T14:04:32.337Z,6.45
2024-01-15T14:06:05.476Z,6.25
2024-01-15T14:07:37.373Z,5.13
2024-01-15T14:09:11.295Z,5.90
2024-01-15T14:10:43.298Z,6.03
2024-01-15T14:12:15.723Z,7.03
2024-01-15T14:13:49.151Z,6.63
2024-01-15T14:15:22.891Z,7.00
2024-01-15T14:16:55.084Z,6.07
2024-01-15T14:18:28.959Z,7.53
2024-01-15T14:20:02.376Z,5.15
2024-01-15T14:21:34.254Z,5.30
2024-01-15T14:23:06.249Z,6.13
2024-01-15T14:24:38.170Z,6.30
2024-01-15T14:26:10.059Z,6.57
2024-01-15T14:27:41.943Z,7.65
2024-01-15T14:29:13.802Z,5.45
2024-01-15T14:30:45.985Z,5.00
2024-01-15T14:32:17.899Z,5.60
2024-01-15T14:33:49.771Z,5.20
2024-01-15T14:35:21.611Z,6.50
2024-01-15T14:36:56.769Z,6.38
2024-01-15T14:38:28.852Z,6.57
2024-01-15T14:40:00.945Z,7.45
2024-01-15T14:41:32.939Z,6.22
2024-01-15T14:43:05.024Z,7.40
2024-01-15T14:44:37.518Z,7.00
2024-01-15T14:46:09.604Z,8.35
2024-01-15T14:47:42.695Z,7.72
2024-01-15T14:49:16.193Z,7.55
2024-01-15T14:50:48.170Z,9.80
2024-01-15T14:52:20.069Z,6.93
2024-01-15T14:53:52.713Z,6.75
2024-01-15T14:55:27.501Z,6.68
2024-01-15T14:56:59.337Z,7.88
2024-01-15T14:58:31.190Z,7.93
2024-01-15T15:00:03.695Z,7.78
2024-01-15T15:01:36.194Z,7.13
2024-01-15T15:03:08.089Z,6.85
2024-01-15T15:04:40.131Z,7.13
2024-01-15T15:06:12.119Z,7.72
2024-01-15T15:07:45.013Z,7.25
2024-01-15T15:09:17.078Z,6.40
2024-01-15T15:10:48.942Z,7.10
2024-01-15T15:12:20.813Z,7.10
2024-01-15T15:13:53.233Z,6.60
2024-01-15T15:15:25.501Z,8.13
2024-01-15T15:16:57.507Z,8.02
2024-01-15T15:18:31.586Z,7.75
2024-01-15T15:20:04.397Z,4.97
2024-01-15T15:21:36.564Z,5.88
2024-01-15T15:23:10.616Z,7.15
2024-01-15T15:24:42.735Z,5.97
2024-01-15T15:26:15.071Z,5.75
2024-01-15T15:27:47.273Z,6.82
2024-01-15T15:29:19.373Z,8.50
2024-01-15T15:30:51.290Z,6.28
2024-01-15T15:32:23.676Z,9.50
2024-01-15T15:33:55.691Z,6.13
2024-01-15T15:35:27.696Z,7.80
2024-01-15T15:36:59.608Z,7.75
2024-01-15T15:38:32.494Z,7.20
2024-01-15T15:40:10.191Z,7.90
2024-01-15T15:41:45.839Z,8.02
2024-01-15T15:43:17.667Z,7.63
2024-01-15T15:44:52.090Z,7.00
2024-01-15T15:46:24.580Z,9.52
2024-01-15T15:47:56.468Z,6.30
2024-01-15T15:49:28.408Z,6.72
2024-01-15T15:51:01.468Z,6.75
2024-01-15T15:52:33.354Z,6.90
2024-01-15T15:54:06.703Z,7.80
2024-01-15T15:55:38.617Z,5.95
2024-01-15T15:57:10.899Z,6.40
2024-01-15T15:58:42.754Z,6.03
2024-01-15T16:00:14.982Z,5.45
2024-01-15T16:01:47.286Z,7.47
2024-01-15T16:03:19.608Z,7.70
2024-01-15T16:04:51.628Z,5.10
2024-01-15T16:06:23.656Z,5.85
2024-01-15T16:07:55.528Z,6.47
2024-01-15T16:09:27.405Z,5.03
2024-01-15T16:11:00.139Z,5.43
2024-01-15T16:12:32.272Z,4.53
2024-01-15T16:14:04.795Z,6.90
2024-01-15T16:15:36.934Z,4.90
2024-01-15T16:23:14.538Z,5.40
2024-01-15T16:23:23.280Z,5.68
2024-01-15T16:23:33.176Z,5.18
2024-01-15T16:23:43.611Z,6.35
2024-01-15T16:24:46.335Z,5.25
2024-01-15T16:26:23.879Z,5.90
2024-01-15T16:27:56.051Z,5.53
2024-01-15T16:29:27.970Z,5.00
2024-01-15T16:31:04.950Z,5.97
2024-01-15T16:32:40.105Z,5.82
2024-01-15T16:34:13.492Z,5.25
2024-01-15T16:35:45.517Z,6.18
2024-01-15T16:37:17.442Z,6.60
2024-01-15T16:38:49.292Z,7.05
2024-01-15T16:40:21.119Z,5.65
2024-01-15T16:41:52.959Z,7.63
2024-01-15T16:43:27.976Z,7.25
2024-01-15T16:44:59.808Z,7.55
2024-01-15T16:46:31.987Z,6.85
2024-01-15T16:48:04.213Z,7.10
2024-01-15T16:49:36.344Z,7.07
2024-01-15T16:51:08.190Z,8.93
2024-01-15T16:52:40.593Z,7.85
2024-01-15T16:54:12.412Z,7.30
2024-01-15T16:55:44.531Z,9.02
2024-01-15T16:57:16.356Z,7.10
2024-01-15T16:58:48.503Z,7.72
2024-01-15T17:00:20.377Z,7.88
2024-01-15T17:01:52.354Z,6.82
2024-01-15T17:03:24.842Z,7.68
2024-01-15T17:04:56.893Z,7.25
2024-01-15T17:06:29.241Z,6.00
2024-01-15T17:08:01.241Z,5.88
2024-01-15T17:09:33.136Z,6.90
2024-01-15T17:11:05.379Z,8.27
2024-01-15T17:12:37.382Z,7.20
2024-01-15T17:14:09.229Z,5.28
2024-01-15T17:15:41.060Z,6.13
2024-01-15T17:17:14.690Z,6.30
2024-01-15T17:18:46.990Z,7.30
2024-01-15T17:20:18.964Z,8.32
2024-01-15T17:21:50.862Z,6.22
2024-01-15T17:23:22.753Z,6.88
2024-01-15T17:24:54.644Z,5.95
2024-01-15T17:26:27.151Z,5.15
2024-01-15T17:27:59.187Z,6.30
2024-01-15T17:29:31.116Z,5.28
2024-01-15T17:31:02.957Z,6.07
2024-01-15T17:32:35.496Z,5.57
2024-01-15T17:34:07.662Z,6.80
2024-01-15T17:35:39.592Z,6.45
2024-01-15T17:37:11.760Z,6.32
2024-01-15T17:38:43.800Z,6.55
2024-01-15T17:40:16.307Z,6.47
2024-01-15T17:41:48.108Z,6.63
2024-01-15T17:43:21.641Z,6.38
2024-01-15T17:44:53.541Z,6.43
2024-01-15T17:46:27.411Z,6.07
2024-01-15T17:47:59.913Z,6.35
2024-01-15T17:49:32.082Z,5.95
2024-01-15T17:51:04.492Z,5.80
2024-01-15T17:52:37.703Z,6.60
2024-01-15T17:54:10.317Z,5.82
2024-01-15T17:55:42.217Z,6.88
2024-01-15T17:57:14.086Z,6.32
2024-01-15T17:58:45.907Z,5.68
2024-01-15T18:00:18.323Z,6.93
2024-01-15T18:01:52.549Z,5.95
2024-01-15T18:03:24.400Z,5.32
2024-01-15T18:04:56.324Z,5.72
2024-01-15T18:06:28.207Z,5.43
2024-01-15T18:08:00.370Z,6.05
2024-01-15T18:09:32.357Z,6.60
2024-01-15T18:11:05.925Z,6.95
2024-01-15T18:12:38.534Z,7.20
2024-01-15T18:14:10.406Z,8.07
2024-01-15T18:15:42.325Z,6.32
2024-01-15T18:17:14.197Z,7.32
2024-01-15T18:18:46.554Z,5.35
2024-01-15T18:20:19.015Z,6.28
2024-01-15T18:21:50.947Z,4.97
2024-01-15T18:23:22.919Z,5.53
2024-01-15T18:24:55.047Z,6.40
2024-01-15T18:26:27.037Z,5.22
2024-01-15T18:27:58.847Z,7.35
2024-01-15T18:29:30.883Z,7.25
2024-01-15T18:31:02.760Z,7.55
2024-01-15T18:32:34.703Z,6.35
2024-01-15T18:34:07.069Z,8.38
2024-01-15T18:35:39.052Z,6.93
2024-01-15T18:37:11.036Z,7.07
2024-01-15T18:38:42.939Z,6.28
2024-01-15T18:40:14.812Z,7.50
2024-01-15T18:41:46.921Z,6.07
2024-01-15T18:43:19.971Z,7.03
2024-01-15T18:44:51.968Z,6.60
2024-01-15T18:46:24.456Z,6.97
2024-01-15T18:47:57.137Z,5.28
2024-01-15T18:49:29.170Z,5.90
2024-01-15T18:51:01.291Z,5.30
2024-01-15T18:52:33.269Z,6.20
2024-01-15T18:54:05.893Z,6.53
2024-01-15T18:55:37.700Z,5.78
2024-01-15T18:57:09.637Z,5.70
2024-01-15T18:58:44.138Z,6.35
2024-01-15T19:00:16.260Z,4.80
2024-01-15T19:01:48.129Z,7.00
2024-01-15T19:03:20.219Z,5.60
2024-01-15T19:04:52.171Z,6.45
2024-01-15T19:06:25.094Z,7.30
2024-01-15T19:07:57.049Z,5.65
2024-01-15T19:09:28.940Z,6.13
2024-01-15T19:11:00.845Z,6.88
2024-01-15T19:12:32.695Z,5.72
2024-01-15T19:14:04.833Z,6.50
2024-01-15T19:15:36.974Z,7.05
2024-01-15T19:17:09.467Z,6.95
2024-01-15T19:18:41.380Z,7.40
2024-01-15T19:20:15.142Z,7.57
2024-01-15T19:21:48.692Z,7.43
2024-01-15T19:23:22.483Z,8.13
2024-01-15T19:24:54.548Z,8.93
2024-01-15T19:26:27.156Z,7.20
2024-01-15T19:27:59.140Z,6.25
2024-01-15T19:29:31.111Z,6.80
2024-01-15T19:31:03.003Z,5.22
2024-01-15T19:32:34.935Z,5.70
2024-01-15T19:34:06.945Z,6.93
2024-01-15T19:35:38.808Z,6.72
2024-01-15T19:37:10.647Z,6.15
2024-01-15T19:38:42.516Z,7.18
2024-01-15T19:40:15.490Z,5.45
2024-01-15T19:41:47.366Z,5.82
2024-01-15T19:43:19.375Z,9.05
2024-01-15T19:44:52.848Z,5.75
2024-01-15T19:46:24.717Z,4.95
2024-01-15T19:47:57.947Z,7.03
2024-01-15T19:49:29.840Z,7.28
2024-01-15T19:51:01.701Z,5.25
2024-01-15T19:52:33.541Z,5.15
2024-01-15T19:54:05.378Z,5.72
2024-01-15T19:55:37.233Z,5.20
2024-01-15T19:57:09.656Z,7.47
2024-01-15T19:58:41.460Z,5.70
2024-01-15T20:00:13.558Z,6.80
2024-01-15T20:01:45.396Z,6.53
2024-01-15T20:03:17.264Z,6.60
2024-01-15T20:04:49.126Z,4.55
2024-01-15T20:06:21.004Z,5.18
2024-01-15T20:07:52.840Z,5.07
2024-01-15T20:09:25.479Z,4.70
2024-01-15T20:11:00.213Z,3.90
2024-01-15T20:12:32.311Z,6.95
2024-01-15T20:14:04.794Z,5.00
2024-01-15T20:15:39.049Z,5.70
2024-01-15T20:17:10.893Z,4.60
2024-01-15T20:18:43.817Z,5.32
2024-01-15T20:20:15.935Z,5.70
2024-01-15T20:21:47.854Z,4.20